Time;durP1;ratioP1;P1;durP2;ratioP2;P2;SDS_P1;SDS_P2;PMS_P1;PMS_P2;Temp;Humidity;BMP_temperature;BMP_pressure;BME280_temperature;BME280_humidity;BME280_pressure;Samples;Min_cycle;Max_cycle;Signal;HPM_P1;HPM_P2
2022/08/19 08:53:57;;;;;;;6.32;5.22;;;29.30;92.20;;;;;;5088627;27;20517;-73
2022/08/19 08:56:22;;;;;;;5.00;4.55;;;29.20;93.00;;;;;;5067880;28;20040;-75
2022/08/19 08:58:52;;;;;;;27.60;5.50;;;;;;;;;;5074688;28;20055;-78
2022/08/19 09:01:17;;;;;;;23.25;5.78;;;29.40;91.80;;;;;;5073908;28;20391;-70
2022/08/19 09:03:45;;;;;;;5.15;4.65;;;29.50;93.00;;;;;;5055688;28;20042;-80
2022/08/19 09:06:31;;;;;;;6.75;4.57;;;29.80;92.30;;;;;;5074442;28;20028;-80
2022/08/19 09:09:18;;;;;;;12.27;4.78;;;29.90;90.20;;;;;;5087705;28;20035;-80
2022/08/19 09:11:56;;;;;;;8.20;4.65;;;30.00;90.70;;;;;;5081240;28;20119;-81
2022/08/19 09:14:46;;;;;;;5.85;4.20;;;30.00;91.00;;;;;;5077210;28;20024;-77
2022/08/19 09:17:13;;;;;;;5.65;4.32;;;30.10;91.20;;;;;;5076564;28;20036;-78
2022/08/19 09:19:50;;;;;;;4.85;4.30;;;30.30;90.90;;;;;;5085466;28;20104;-78
2022/08/19 09:22:15;;;;;;;7.15;4.28;;;30.30;90.40;;;;;;5075157;28;20055;-77
2022/08/19 09:24:41;;;;;;;7.22;3.92;;;30.40;89.60;;;;;;5085852;28;20021;-79
2022/08/19 09:27:06;;;;;;;5.00;4.38;;;30.60;90.90;;;;;;5087202;28;20036;-82
2022/08/19 09:29:32;;;;;;;5.32;3.90;;;30.80;90.50;;;;;;5075043;28;20037;-78
2022/08/19 09:31:58;;;;;;;6.18;4.30;;;30.90;89.30;;;;;;5074434;28;20118;-81
2022/08/19 09:34:23;;;;;;;4.30;3.92;;;31.00;89.20;;;;;;5082340;28;20189;-80
2022/08/19 09:36:55;;;;;;;4.93;4.22;;;31.10;88.30;;;;;;5076913;28;20103;-79
2022/08/19 09:39:21;;;;;;;4.88;4.10;;;31.10;86.30;;;;;;5078568;28;20055;-81
2022/08/19 09:41:46;;;;;;;5.78;3.67;;;31.20;84.70;;;;;;5075986;28;20032;-87
2022/08/19 09:44:13;;;;;;;6.68;3.58;;;31.30;81.70;;;;;;5076429;28;20100;-84
2022/08/19 09:46:38;;;;;;;5.50;4.10;;;31.40;80.90;;;;;;5073767;28;20036;-79
2022/08/19 09:49:06;;;;;;;7.30;4.00;;;31.50;80.40;;;;;;5076145;28;20054;-80
2022/08/19 09:51:32;;;;;;;5.35;4.38;;;31.60;80.40;;;;;;5066581;28;20063;-80
2022/08/19 09:54:01;;;;;;;4.97;4.03;;;31.50;83.50;;;;;;5074474;28;20346;-80
2022/08/19 09:56:27;;;;;;;5.00;3.92;;;31.60;81.40;;;;;;5073202;28;20344;-70
2022/08/19 09:58:53;;;;;;;6.25;3.33;;;31.60;76.10;;;;;;5061052;28;20035;-73
2022/08/19 10:01:25;;;;;;;7.20;3.45;;;31.70;70.60;;;;;;5061033;28;20024;-71
2022/08/19 10:03:53;;;;;;;3.45;3.15;;;31.70;65.80;;;;;;5069119;27;20041;-73
2022/08/19 10:06:21;;;;;;;12.20;3.70;;;31.70;70.00;;;;;;5036622;28;20567;-73
2022/08/19 10:08:48;;;;;;;3.70;3.28;;;31.80;68.90;;;;;;5048896;28;20039;-72
2022/08/19 10:11:15;;;;;;;6.15;3.45;;;31.90;67.70;;;;;;5058504;28;20028;-70
2022/08/19 10:13:43;;;;;;;6.60;3.90;;;32.00;67.30;;;;;;5057800;28;20497;-73
2022/08/19 10:16:13;;;;;;;6.50;4.00;;;32.10;63.70;;;;;;5049482;28;20031;-76
2022/08/19 10:18:42;;;;;;;4.22;3.63;;;32.00;63.40;;;;;;5058616;28;20240;-73
2022/08/19 10:21:16;;;;;;;4.70;3.42;;;32.00;63.80;;;;;;5047572;28;20025;-75
2022/08/19 10:23:45;;;;;;;4.18;3.78;;;32.00;63.30;;;;;;5056827;28;20036;-74
2022/08/19 10:26:14;;;;;;;5.28;3.40;;;32.00;65.20;;;;;;5051801;28;20059;-76
2022/08/19 10:28:40;;;;;;;5.05;3.80;;;32.20;62.50;;;;;;5063068;28;20025;-72
2022/08/19 10:31:08;;;;;;;7.45;4.20;;;32.30;62.50;;;;;;5056990;28;20036;-73
2022/08/19 10:33:35;;;;;;;5.15;3.30;;;32.30;62.20;;;;;;5060805;28;20036;-72
2022/08/19 10:36:07;;;;;;;5.03;3.53;;;32.30;61.90;;;;;;5071784;28;20059;-73
2022/08/19 10:38:33;;;;;;;5.20;3.58;;;32.30;61.60;;;;;;5063302;28;20853;-73
2022/08/19 10:41:13;;;;;;;6.07;3.65;;;32.30;59.90;;;;;;5055160;28;20029;-75
2022/08/19 10:43:40;;;;;;;4.78;3.67;;;32.30;60.60;;;;;;5058312;28;20052;-75
2022/08/19 10:46:08;;;;;;;4.43;3.50;;;32.40;59.60;;;;;;5063235;28;20084;-78
2022/08/19 10:48:34;;;;;;;4.82;3.28;;;32.50;59.10;;;;;;5055896;28;20495;-72
2022/08/19 10:53:45;;;;;;;4.38;3.88;;;32.50;58.50;;;;;;5057368;28;20158;-76
2022/08/19 10:58:57;;;;;;;7.70;3.38;;;32.60;59.30;;;;;;5054015;28;20524;-73
2022/08/19 11:01:24;;;;;;;7.28;3.55;;;32.70;58.80;;;;;;5059907;28;20035;-72
2022/08/19 11:03:50;;;;;;;6.75;3.50;;;32.70;58.30;;;;;;5059575;28;20040;-74
2022/08/19 11:06:15;;;;;;;3.50;3.20;;;32.70;59.30;;;;;;5057756;28;20047;-75
2022/08/19 11:08:44;;;;;;;6.22;3.47;;;32.80;57.70;;;;;;5060177;28;20478;-74
2022/08/19 11:11:10;;;;;;;7.32;3.83;;;32.80;57.80;;;;;;5058284;28;20092;-75
2022/08/19 11:13:39;;;;;;;4.18;3.33;;;32.90;57.50;;;;;;5066601;28;20100;-76
2022/08/19 11:16:13;;;;;;;3.20;3.00;;;32.90;57.20;;;;;;5058256;28;20021;-76
2022/08/19 11:18:42;;;;;;;7.18;3.72;;;33.00;57.60;;;;;;5063694;28;20060;-75
2022/08/19 11:21:18;;;;;;;4.75;4.07;;;33.00;57.40;;;;;;5052348;28;20104;-76
2022/08/19 11:23:46;;;;;;;5.65;3.47;;;33.10;56.60;;;;;;5061109;28;20552;-75
2022/08/19 11:26:14;;;;;;;6.07;3.20;;;33.20;55.70;;;;;;5061133;28;20101;-73
2022/08/19 11:28:40;;;;;;;5.72;3.58;;;33.10;55.90;;;;;;5059652;28;20028;-74
2022/08/19 11:31:15;;;;;;;7.60;3.50;;;33.20;57.50;;;;;;5050490;28;20028;-75
2022/08/19 11:33:41;;;;;;;3.65;3.35;;;33.30;56.50;;;;;;5062373;28;20248;-75
2022/08/19 11:36:07;;;;;;;7.30;3.55;;;33.40;56.80;;;;;;5057614;28;20032;-72
2022/08/19 11:38:35;;;;;;;8.85;3.80;;;33.40;57.40;;;;;;5051252;28;20032;-71
2022/08/19 11:41:07;;;;;;;4.22;3.38;;;33.50;56.40;;;;;;5058843;28;20020;-75
2022/08/19 11:43:33;;;;;;;4.68;3.10;;;33.50;55.80;;;;;;5058785;28;20025;-74
2022/08/19 11:45:59;;;;;;;6.07;3.47;;;33.50;54.80;;;;;;5056329;28;20045;-75
2022/08/19 11:48:25;;;;;;;6.38;3.67;;;33.50;55.50;;;;;;5058702;28;20086;-74
2022/08/19 11:50:52;;;;;;;4.65;3.40;;;33.50;55.20;;;;;;5057702;28;20129;-76
2022/08/19 11:53:19;;;;;;;6.78;3.40;;;33.50;55.20;;;;;;5052957;28;20048;-75
2022/08/19 11:55:46;;;;;;;4.35;3.20;;;33.50;55.40;;;;;;5056013;28;20028;-73
2022/08/19 11:58:14;;;;;;;6.72;3.38;;;33.50;54.30;;;;;;5055477;28;20025;-74
2022/08/19 12:00:40;;;;;;;7.95;3.20;;;33.60;55.10;;;;;;5063052;28;20070;-73
2022/08/19 12:03:06;;;;;;;6.55;3.35;;;33.60;56.00;;;;;;5059717;28;20432;-74
2022/08/19 12:05:32;;;;;;;4.15;3.63;;;33.70;54.30;;;;;;5061873;28;20066;-76
2022/08/19 12:07:58;;;;;;;4.93;3.40;;;33.70;53.40;;;;;;5063933;28;20032;-75
2022/08/19 12:10:24;;;;;;;4.32;3.13;;;33.70;54.80;;;;;;5056271;28;20281;-75
2022/08/19 12:12:49;;;;;;;5.07;3.28;;;33.90;55.40;;;;;;5059046;28;20040;-75
2022/08/19 12:15:15;;;;;;;3.40;3.10;;;34.00;55.20;;;;;;5051274;28;20063;-74
2022/08/19 12:17:42;;;;;;;9.20;3.50;;;34.00;54.50;;;;;;5058368;28;20070;-74
2022/08/19 12:20:10;;;;;;;6.63;3.50;;;33.80;54.30;;;;;;5061732;28;20021;-74
2022/08/19 12:22:41;;;;;;;6.35;3.85;;;33.80;53.50;;;;;;5059015;28;20028;-72
2022/08/19 12:25:09;;;;;;;7.87;3.13;;;33.80;53.60;;;;;;5058276;28;20063;-72
2022/08/19 12:27:35;;;;;;;7.18;3.10;;;33.80;54.50;;;;;;5055845;28;20035;-72
2022/08/19 12:30:02;;;;;;;7.88;4.20;;;33.80;54.60;;;;;;5062733;28;20032;-72
2022/08/19 12:32:28;;;;;;;5.63;3.22;;;33.90;54.00;;;;;;5060808;28;20043;-73
2022/08/19 12:34:54;;;;;;;9.35;2.92;;;33.70;53.70;;;;;;5049494;28;20041;-71
2022/08/19 12:37:20;;;;;;;6.20;3.20;;;33.70;55.90;;;;;;5052320;28;20013;-76
2022/08/19 12:39:46;;;;;;;6.75;3.10;;;33.80;53.70;;;;;;5053155;28;20378;-74
2022/08/19 12:42:13;;;;;;;7.43;3.28;;;34.00;53.20;;;;;;5058407;28;20040;-75
2022/08/19 12:44:41;;;;;;;6.15;2.78;;;34.00;54.10;;;;;;5058954;28;20036;-80
2022/08/19 12:47:07;;;;;;;9.18;2.90;;;34.10;53.20;;;;;;5053073;28;22091;-83
2022/08/19 12:49:34;;;;;;;7.57;3.22;;;34.00;52.00;;;;;;5047773;28;20039;-80
2022/08/19 12:52:00;;;;;;;4.45;2.95;;;33.90;52.20;;;;;;5045650;28;20049;-82
2022/08/19 12:54:27;;;;;;;5.20;3.25;;;33.80;53.20;;;;;;5043940;28;20029;-77
2022/08/19 12:56:52;;;;;;;7.10;3.50;;;33.80;53.00;;;;;;5034332;28;20028;-79
2022/08/19 12:59:18;;;;;;;5.95;3.10;;;33.70;52.60;;;;;;5038606;28;20029;-82
2022/08/19 13:01:44;;;;;;;4.72;2.95;;;33.60;52.70;;;;;;5038822;28;20033;-81
2022/08/19 13:04:10;;;;;;;7.38;3.38;;;33.70;53.90;;;;;;5044275;28;20048;-80
2022/08/19 13:06:36;;;;;;;5.90;3.40;;;33.80;53.40;;;;;;5046469;28;20462;-82
2022/08/19 13:09:02;;;;;;;10.45;3.45;;;33.80;52.70;;;;;;5044154;28;20051;-82
2022/08/19 13:11:32;;;;;;;6.45;2.92;;;33.80;52.90;;;;;;5047892;28;20028;-82
2022/08/19 13:13:58;;;;;;;4.85;3.00;;;33.80;51.90;;;;;;5044671;28;20352;-79
2022/08/19 13:16:24;;;;;;;8.00;3.42;;;33.90;53.60;;;;;;5051239;28;20111;-82
2022/08/19 13:18:51;;;;;;;6.97;3.80;;;34.00;52.90;;;;;;5055384;28;20468;-82
2022/08/19 13:21:19;;;;;;;7.88;3.20;;;34.10;52.20;;;;;;5052168;28;20025;-81
2022/08/19 13:23:45;;;;;;;6.38;3.13;;;34.20;51.80;;;;;;5055010;28;20041;-80
2022/08/19 13:26:12;;;;;;;3.97;3.28;;;34.30;53.10;;;;;;5060108;28;20085;-76
2022/08/19 13:34:08;;;;;;;8.70;3.17;;;34.20;53.80;;;;;;5050111;28;20131;-75
2022/08/19 13:36:34;;;;;;;4.03;2.85;;;34.20;52.10;;;;;;5058264;28;20488;-75
2022/08/19 13:39:00;;;;;;;7.72;3.47;;;34.20;51.40;;;;;;5050464;28;20398;-75
2022/08/19 13:41:26;;;;;;;5.25;3.13;;;34.20;54.00;;;;;;5070046;28;20051;-74
2022/08/19 13:43:52;;;;;;;5.55;3.40;;;34.30;54.40;;;;;;5051191;28;20090;-75
2022/08/19 13:46:19;;;;;;;6.57;3.35;;;34.50;52.60;;;;;;5066321;28;20048;-81
2022/08/19 13:48:46;;;;;;;5.95;3.60;;;34.50;50.70;;;;;;5053617;28;20536;-82
2022/08/19 13:51:12;;;;;;;9.50;3.55;;;34.40;49.70;;;;;;5060098;28;20025;-81
2022/08/19 13:53:38;;;;;;;4.75;3.50;;;34.30;49.80;;;;;;5040518;28;20056;-80
2022/08/19 13:56:11;;;;;;;6.13;3.95;;;34.20;49.60;;;;;;5046123;28;20032;-79
2022/08/19 13:58:38;;;;;;;7.05;3.90;;;34.10;50.90;;;;;;5049806;28;20091;-80
2022/08/19 14:01:05;;;;;;;10.77;3.92;;;34.00;50.70;;;;;;5058490;28;20423;-81
2022/08/19 14:03:33;;;;;;;7.90;3.33;;;33.90;50.00;;;;;;5056126;28;20375;-79
2022/08/19 14:05:59;;;;;;;9.25;3.60;;;33.80;50.40;;;;;;5052141;28;20325;-80
2022/08/19 14:08:27;;;;;;;6.72;3.60;;;33.80;50.60;;;;;;5064501;28;20028;-81
2022/08/19 14:10:56;;;;;;;33.00;5.47;;;33.70;50.40;;;;;;5060149;28;20044;-77
2022/08/19 14:13:25;;;;;;;18.67;3.35;;;33.60;61.60;;;;;;5049828;28;20131;-73
2022/08/19 14:15:51;;;;;;;13.00;3.13;;;32.70;67.00;;;;;;5058269;28;20029;-75
2022/08/19 14:18:18;;;;;;;15.40;3.13;;;32.00;71.10;;;;;;5062469;28;20584;-74
2022/08/19 14:20:44;;;;;;;10.50;3.30;;;31.40;74.00;;;;;;5058789;28;20040;-75
2022/08/19 14:23:11;;;;;;;11.52;3.17;;;31.10;74.40;;;;;;5053250;28;20031;-78
2022/08/19 14:25:38;;;;;;;9.40;3.05;;;30.80;74.70;;;;;;5051216;28;20030;-75
2022/08/19 14:28:03;;;;;;;6.88;2.85;;;30.60;74.30;;;;;;5061838;28;20123;-79
2022/08/19 14:30:32;;;;;;;13.30;3.20;;;30.40;75.20;;;;;;5058547;28;20021;-75
2022/08/19 14:33:00;;;;;;;5.18;2.63;;;30.30;77.20;;;;;;5052524;28;20081;-75
2022/08/19 14:35:27;;;;;;;7.53;3.03;;;30.10;77.20;;;;;;5063558;28;20035;-79
2022/08/19 14:37:55;;;;;;;8.90;2.78;;;30.00;79.10;;;;;;5062442;28;21121;-80
2022/08/19 14:40:25;;;;;;;8.57;2.92;;;29.80;78.80;;;;;;5052685;28;24327;-77
2022/08/19 14:42:52;;;;;;;9.60;2.80;;;29.60;79.60;;;;;;5061968;28;20106;-74
2022/08/19 14:45:17;;;;;;;8.23;2.78;;;29.50;79.10;;;;;;5061713;28;20025;-77
2022/08/19 14:47:43;;;;;;;6.78;2.83;;;29.40;79.60;;;;;;5067099;28;20044;-74
2022/08/19 14:50:11;;;;;;;7.05;2.58;;;29.30;78.90;;;;;;5052205;28;20070;-71
2022/08/19 14:52:37;;;;;;;6.93;2.90;;;29.20;79.00;;;;;;5047376;28;20113;-77
2022/08/19 14:55:04;;;;;;;6.70;2.50;;;29.30;78.50;;;;;;5057599;28;20115;-73
2022/08/19 14:57:30;;;;;;;12.68;3.05;;;29.20;79.00;;;;;;5056814;28;20033;-74
2022/08/19 14:59:56;;;;;;;8.20;2.70;;;29.30;78.70;;;;;;5057487;28;20028;-74
2022/08/19 15:02:22;;;;;;;12.13;2.67;;;29.30;77.80;;;;;;5059194;28;20025;-72
2022/08/19 15:04:48;;;;;;;12.88;2.75;;;29.40;77.40;;;;;;5051457;28;20031;-71
2022/08/19 15:07:14;;;;;;;10.45;2.70;;;29.50;79.30;;;;;;5069295;28;20033;-71
2022/08/19 15:09:40;;;;;;;9.30;3.00;;;29.60;80.10;;;;;;5055380;28;20876;-77
2022/08/19 15:12:06;;;;;;;7.65;2.90;;;29.60;79.00;;;;;;5051635;28;20044;-78
2022/08/19 15:14:34;;;;;;;9.13;2.55;;;29.70;77.10;;;;;;5056997;28;20701;-78
2022/08/19 15:17:02;;;;;;;11.93;2.88;;;29.60;75.60;;;;;;5056516;28;21661;-77
2022/08/19 15:19:28;;;;;;;10.43;2.60;;;29.60;74.70;;;;;;5051937;28;20024;-79
2022/08/19 15:21:54;;;;;;;8.52;2.67;;;29.60;75.10;;;;;;5060345;28;20028;-77
2022/08/19 15:24:20;;;;;;;12.50;3.03;;;29.60;75.60;;;;;;5052734;28;20020;-78
2022/08/19 15:26:46;;;;;;;11.95;2.83;;;29.50;74.60;;;;;;5056990;28;20124;-74
2022/08/19 15:29:16;;;;;;;10.90;2.63;;;29.40;74.80;;;;;;5049531;28;20040;-70
2022/08/19 15:31:42;;;;;;;13.55;3.05;;;29.40;75.80;;;;;;5051156;28;20046;-74
2022/08/19 15:34:08;;;;;;;11.50;3.08;;;29.40;74.40;;;;;;5049067;28;20037;-74
2022/08/19 15:36:34;;;;;;;8.55;3.05;;;29.40;73.90;;;;;;5050632;28;20029;-77
2022/08/19 15:39:01;;;;;;;9.27;3.25;;;29.40;73.80;;;;;;5051257;28;20067;-76
2022/08/19 15:41:29;;;;;;;8.52;2.53;;;29.40;72.70;;;;;;5056445;28;20103;-74
2022/08/19 15:44:21;;;;;;;9.85;2.88;;;29.40;71.20;;;;;;5050914;28;20116;-79
2022/08/19 15:46:48;;;;;;;8.50;2.67;;;29.40;71.60;;;;;;5060172;28;20128;-75
2022/08/19 15:49:15;;;;;;;10.73;3.17;;;29.40;71.60;;;;;;5056170;28;20044;-75
2022/08/19 15:51:44;;;;;;;8.13;2.50;;;29.40;71.30;;;;;;5049602;28;20394;-73
2022/08/19 15:54:13;;;;;;;10.32;2.28;;;29.40;70.10;;;;;;5056895;28;20045;-73
